Time;durP1;ratioP1;P1;durP2;ratioP2;P2;SDS_P1;SDS_P2;PMS_P1;PMS_P2;Temp;Humidity;BMP_temperature;BMP_pressure;BME280_temperature;BME280_humidity;BME280_pressure;Samples;Min_cycle;Max_cycle;Signal;HPM_P1;HPM_P2
2021/11/28 00:01:51;;;;;;;8.98;7.82;;;2.20;99.90;;;;;;5040001;28;20022;-73
2021/11/28 00:04:17;;;;;;;9.40;7.75;;;2.30;99.90;;;;;;5040599;28;20026;-73
2021/11/28 00:06:53;;;;;;;11.40;7.53;;;2.30;99.90;;;;;;5040296;28;20044;-75
2021/11/28 00:14:39;;;;;;;10.27;7.55;;;2.30;99.90;;;;;;5040308;28;20018;-73
2021/11/28 00:17:05;;;;;;;11.32;8.60;;;2.20;99.90;;;;;;5039522;28;20068;-74
2021/11/28 00:19:31;;;;;;;10.82;8.38;;;2.20;99.90;;;;;;5038026;28;20018;-74
2021/11/28 00:21:56;;;;;;;9.43;8.43;;;2.10;99.90;;;;;;5037673;28;20492;-73
2021/11/28 00:24:22;;;;;;;9.43;8.07;;;2.10;99.90;;;;;;5039167;28;20052;-74
2021/11/28 00:26:49;;;;;;;9.13;7.57;;;2.30;99.90;;;;;;5043039;28;20026;-73
2021/11/28 00:29:15;;;;;;;12.32;8.07;;;2.40;99.90;;;;;;5041499;28;20029;-74
2021/11/28 00:31:40;;;;;;;9.82;7.75;;;2.40;99.90;;;;;;5038933;28;20048;-73
2021/11/28 00:34:06;;;;;;;10.02;8.13;;;2.40;99.90;;;;;;5039786;28;20036;-74
2021/11/28 00:36:31;;;;;;;8.88;7.55;;;2.50;99.90;;;;;;5039407;28;20032;-73
2021/11/28 00:38:57;;;;;;;8.95;7.65;;;2.60;99.90;;;;;;5038800;28;20083;-74
2021/11/28 00:41:23;;;;;;;11.07;7.40;;;2.70;99.90;;;;;;5038765;28;20040;-74
2021/11/28 00:43:49;;;;;;;9.27;7.60;;;2.70;99.90;;;;;;5039061;28;20045;-72
2021/11/28 00:46:15;;;;;;;10.45;7.63;;;2.60;99.90;;;;;;5038774;28;20468;-73
2021/11/28 00:48:44;;;;;;;10.73;8.85;;;2.60;99.90;;;;;;5035108;28;20049;-73
2021/11/28 00:53:42;;;;;;;11.20;7.65;;;2.50;99.90;;;;;;5035976;28;20532;-73
2021/11/28 00:56:07;;;;;;;8.85;7.00;;;2.50;99.90;;;;;;5035934;28;20025;-73
2021/11/28 00:58:33;;;;;;;10.68;7.70;;;2.40;99.90;;;;;;5035008;28;20026;-74
2021/11/28 01:00:58;;;;;;;9.82;7.93;;;2.30;99.90;;;;;;5035429;28;20086;-74
2021/11/28 01:03:24;;;;;;;8.45;6.85;;;2.30;99.90;;;;;;5035565;28;20033;-73
2021/11/28 01:05:49;;;;;;;9.48;8.50;;;2.30;99.90;;;;;;5035188;28;20036;-73
2021/11/28 01:08:15;;;;;;;8.82;7.93;;;2.40;99.90;;;;;;5033888;28;20136;-73
2021/11/28 01:10:41;;;;;;;10.77;9.07;;;2.50;99.90;;;;;;5034531;28;20036;-74
2021/11/28 01:13:07;;;;;;;11.73;8.35;;;2.40;99.90;;;;;;5035275;28;20068;-73
2021/11/28 01:15:32;;;;;;;10.70;6.65;;;2.40;99.90;;;;;;5035184;28;20379;-74
2021/11/28 01:17:58;;;;;;;9.65;6.78;;;2.40;99.90;;;;;;5034926;28;20032;-73
2021/11/28 01:20:23;;;;;;;8.23;6.60;;;2.40;99.90;;;;;;5034423;28;20441;-72
2021/11/28 01:22:49;;;;;;;7.50;6.70;;;2.40;99.90;;;;;;5038545;28;20026;-74
2021/11/28 01:25:15;;;;;;;10.60;7.97;;;2.50;99.90;;;;;;5043570;28;20359;-74
2021/11/28 01:27:42;;;;;;;8.70;7.43;;;2.50;99.90;;;;;;5034773;28;20021;-72
2021/11/28 01:30:09;;;;;;;12.35;7.32;;;2.50;99.90;;;;;;5034227;28;20045;-72
2021/11/28 01:32:36;;;;;;;10.05;7.32;;;2.60;99.90;;;;;;5034302;28;20065;-73
2021/11/28 01:35:04;;;;;;;9.75;7.15;;;2.60;99.90;;;;;;5033181;28;20116;-73
2021/11/28 01:37:30;;;;;;;8.68;7.38;;;2.60;99.90;;;;;;5035725;28;20079;-73
2021/11/28 01:39:55;;;;;;;12.45;8.43;;;2.60;99.90;;;;;;5037960;28;20025;-72
2021/11/28 01:42:37;;;;;;;8.82;7.75;;;2.70;99.90;;;;;;5038790;28;20392;-73
2021/11/28 01:45:05;;;;;;;14.82;8.68;;;2.70;99.90;;;;;;5033153;28;20033;-73
2021/11/28 01:47:31;;;;;;;9.52;8.20;;;2.80;99.90;;;;;;5034676;28;20393;-73
2021/11/28 01:49:58;;;;;;;11.88;9.20;;;2.70;99.90;;;;;;5032681;28;20022;-72
2021/11/28 01:52:24;;;;;;;11.55;9.13;;;2.60;99.90;;;;;;5034027;28;20029;-73
2021/11/28 01:54:50;;;;;;;11.00;8.88;;;2.70;99.90;;;;;;5034237;28;20014;-72
2021/11/28 01:57:15;;;;;;;13.77;9.05;;;2.60;99.90;;;;;;5034166;28;20392;-73
2021/11/28 01:59:41;;;;;;;12.07;8.27;;;2.60;99.90;;;;;;5033763;28;20076;-72
2021/11/28 02:02:07;;;;;;;8.65;7.00;;;2.50;99.90;;;;;;5033939;28;20022;-73
2021/11/28 02:04:33;;;;;;;9.95;8.45;;;2.40;99.90;;;;;;5033980;28;20040;-72
2021/11/28 02:06:58;;;;;;;11.77;7.07;;;2.50;99.90;;;;;;5032576;28;20033;-72
2021/11/28 02:09:24;;;;;;;13.48;7.90;;;2.60;99.90;;;;;;5033967;28;20021;-72
2021/11/28 02:11:49;;;;;;;9.65;6.80;;;2.50;99.90;;;;;;5033340;28;20029;-74
2021/11/28 02:14:15;;;;;;;9.40;7.30;;;2.50;99.90;;;;;;5033533;28;20060;-74
2021/11/28 02:16:41;;;;;;;8.55;7.38;;;2.60;99.90;;;;;;5033412;28;20389;-72
2021/11/28 02:19:07;;;;;;;14.15;7.25;;;2.60;99.90;;;;;;5033186;28;20026;-73
2021/11/28 02:21:33;;;;;;;12.52;7.45;;;2.60;99.90;;;;;;5015616;28;20508;-73
2021/11/28 02:23:59;;;;;;;10.68;8.20;;;2.60;99.90;;;;;;5033482;28;20108;-73
2021/11/28 02:26:25;;;;;;;10.70;8.40;;;2.50;99.90;;;;;;5033509;28;20044;-72
2021/11/28 02:28:52;;;;;;;9.27;7.50;;;2.50;99.90;;;;;;5033256;28;20500;-73
2021/11/28 02:31:17;;;;;;;9.35;8.35;;;2.40;99.90;;;;;;5033239;28;20105;-73
2021/11/28 02:33:43;;;;;;;9.15;8.23;;;2.30;99.90;;;;;;5035909;28;20100;-72
2021/11/28 02:36:09;;;;;;;9.02;8.00;;;2.30;99.90;;;;;;5034959;28;20029;-73
2021/11/28 02:38:35;;;;;;;15.63;7.95;;;2.30;99.90;;;;;;5033458;28;20033;-73
2021/11/28 02:41:01;;;;;;;8.13;7.32;;;2.30;99.90;;;;;;5032920;28;20061;-72
2021/11/28 02:43:29;;;;;;;10.32;7.47;;;2.30;99.90;;;;;;5033044;28;20075;-72
2021/11/28 02:45:55;;;;;;;9.07;7.65;;;2.20;99.90;;;;;;5032858;28;20029;-71
2021/11/28 02:48:21;;;;;;;10.77;7.72;;;2.20;99.90;;;;;;5036188;28;20056;-74
2021/11/28 02:50:48;;;;;;;9.00;7.35;;;2.40;99.90;;;;;;5039372;28;20076;-74
2021/11/28 02:53:14;;;;;;;12.43;8.63;;;2.40;99.90;;;;;;5033821;28;20017;-73
2021/11/28 02:55:46;;;;;;;11.82;7.75;;;2.40;99.90;;;;;;5033159;28;20077;-73
2021/11/28 02:58:14;;;;;;;8.57;7.55;;;2.40;99.90;;;;;;5032650;28;20018;-74
2021/11/28 03:00:43;;;;;;;10.00;7.60;;;2.30;99.90;;;;;;5032846;28;20508;-72
2021/11/28 03:03:08;;;;;;;9.85;7.22;;;2.30;99.90;;;;;;5032649;28;20504;-73
2021/11/28 03:05:34;;;;;;;12.30;8.38;;;2.30;99.90;;;;;;5033037;28;20061;-73
2021/11/28 03:08:00;;;;;;;12.07;7.95;;;2.30;99.90;;;;;;5033130;28;20025;-73
2021/11/28 03:10:42;;;;;;;13.80;10.20;;;2.40;99.90;;;;;;5032381;28;20029;-73
2021/11/28 03:13:20;;;;;;;9.15;7.40;;;2.40;99.90;;;;;;5042997;28;20025;-73
2021/11/28 03:15:48;;;;;;;11.77;7.47;;;2.40;99.90;;;;;;5032617;28;20384;-72
2021/11/28 03:18:16;;;;;;;12.23;8.30;;;2.40;99.90;;;;;;5032692;28;20481;-73
2021/11/28 03:20:43;;;;;;;10.18;7.57;;;2.40;99.90;;;;;;5036557;28;20041;-73
2021/11/28 03:23:10;;;;;;;10.40;8.38;;;2.40;99.90;;;;;;5043892;28;20021;-73
2021/11/28 03:25:36;;;;;;;8.80;7.75;;;2.40;99.90;;;;;;5038544;28;20416;-74
2021/11/28 03:28:01;;;;;;;9.77;7.45;;;2.50;99.90;;;;;;5033483;28;20208;-73
2021/11/28 03:30:27;;;;;;;8.88;7.00;;;2.60;99.90;;;;;;5032882;28;20025;-73
2021/11/28 03:32:53;;;;;;;8.95;6.80;;;2.60;99.90;;;;;;5033500;28;20065;-73
2021/11/28 03:35:19;;;;;;;12.00;5.65;;;2.70;99.90;;;;;;5033374;28;20029;-73
2021/11/28 03:37:44;;;;;;;6.82;5.55;;;2.70;99.90;;;;;;5032374;28;20445;-73
2021/11/28 03:40:11;;;;;;;8.18;6.50;;;2.60;99.90;;;;;;5032176;28;20120;-72
2021/11/28 03:42:37;;;;;;;5.95;5.35;;;2.50;99.90;;;;;;5032397;28;20026;-73
2021/11/28 03:45:07;;;;;;;7.45;6.63;;;2.60;99.90;;;;;;5032667;28;20025;-73
2021/11/28 03:47:33;;;;;;;9.48;6.32;;;2.80;99.90;;;;;;5032753;28;20030;-73
2021/11/28 03:49:59;;;;;;;7.85;6.72;;;2.80;99.90;;;;;;5032547;28;20034;-73
2021/11/28 03:52:25;;;;;;;7.00;6.20;;;2.80;99.90;;;;;;5032443;28;20036;-74
2021/11/28 03:54:51;;;;;;;10.13;6.47;;;2.90;99.90;;;;;;5032437;28;20032;-74
2021/11/28 03:57:16;;;;;;;8.65;6.85;;;2.70;99.90;;;;;;5033986;28;20522;-74
2021/11/28 03:59:42;;;;;;;8.60;6.15;;;2.70;99.90;;;;;;5036468;28;20025;-73
2021/11/28 04:02:08;;;;;;;7.35;6.43;;;2.60;99.90;;;;;;5036224;28;20030;-73
2021/11/28 04:04:33;;;;;;;7.80;6.30;;;2.80;99.90;;;;;;5035571;28;20095;-73
2021/11/28 04:06:59;;;;;;;7.88;6.28;;;2.80;99.90;;;;;;5034131;28;20511;-73
2021/11/28 04:09:24;;;;;;;6.70;5.25;;;2.80;99.90;;;;;;5035031;28;20033;-74
2021/11/28 04:11:50;;;;;;;7.88;5.50;;;2.70;99.90;;;;;;5034955;28;20515;-73
2021/11/28 04:14:18;;;;;;;9.55;6.47;;;2.80;99.90;;;;;;5035252;28;20584;-73
2021/11/28 04:16:43;;;;;;;5.85;5.18;;;2.80;99.90;;;;;;5034762;28;20116;-73
2021/11/28 04:19:09;;;;;;;5.93;5.32;;;2.80;99.90;;;;;;5037564;28;20017;-73
2021/11/28 04:21:35;;;;;;;8.05;6.30;;;2.90;99.90;;;;;;5072483;22;20057;-79
2021/11/28 04:24:00;;;;;;;6.00;5.32;;;3.00;99.90;;;;;;5054172;28;20045;-78
2021/11/28 04:26:26;;;;;;;8.38;5.57;;;2.90;99.90;;;;;;5051075;28;20037;-78
2021/11/28 04:28:52;;;;;;;7.72;6.47;;;2.90;99.90;;;;;;5050143;28;20083;-78
2021/11/28 04:31:17;;;;;;;7.47;5.18;;;2.90;99.90;;;;;;5048765;28;20029;-78
2021/11/28 04:33:43;;;;;;;8.38;5.68;;;2.90;99.90;;;;;;5049809;28;20018;-78
2021/11/28 04:36:08;;;;;;;8.77;5.95;;;2.70;99.90;;;;;;5050035;28;20037;-78
2021/11/28 04:38:34;;;;;;;7.80;6.25;;;2.60;99.90;;;;;;5051796;28;20056;-79
2021/11/28 04:41:00;;;;;;;7.53;5.55;;;2.50;99.90;;;;;;5046923;28;20021;-77
2021/11/28 04:43:26;;;;;;;8.18;5.57;;;2.50;99.90;;;;;;5048289;28;20064;-78
2021/11/28 04:45:51;;;;;;;10.02;6.05;;;2.40;99.90;;;;;;5051418;28;20048;-78
2021/11/28 04:48:17;;;;;;;7.90;6.05;;;2.40;99.90;;;;;;5050383;28;20021;-78
2021/11/28 04:50:43;;;;;;;8.90;5.80;;;2.40;99.90;;;;;;5049904;28;20030;-77
2021/11/28 04:53:08;;;;;;;7.38;5.80;;;2.50;99.90;;;;;;5047862;28;20025;-78
2021/11/28 04:55:34;;;;;;;10.02;5.55;;;2.50;99.90;;;;;;5037289;28;20022;-78
2021/11/28 04:58:01;;;;;;;8.13;5.45;;;2.50;99.90;;;;;;5047363;28;20117;-77
2021/11/28 05:00:27;;;;;;;8.00;5.55;;;2.50;99.90;;;;;;5052301;28;20048;-78
2021/11/28 05:02:55;;;;;;;6.70;5.47;;;2.50;99.90;;;;;;5054445;28;20034;-79
2021/11/28 05:05:21;;;;;;;7.95;5.05;;;2.50;99.90;;;;;;5041330;28;20102;-78
2021/11/28 05:07:47;;;;;;;8.07;5.78;;;2.60;99.90;;;;;;5038660;28;20033;-78
2021/11/28 05:10:13;;;;;;;6.50;5.45;;;2.60;99.90;;;;;;5040510;28;20049;-79
2021/11/28 05:12:39;;;;;;;6.28;5.45;;;2.60;99.90;;;;;;5040446;28;20095;-79
2021/11/28 05:15:05;;;;;;;5.22;4.07;;;2.60;99.90;;;;;;5039357;28;20028;-79
2021/11/28 05:17:31;;;;;;;7.60;5.55;;;2.60;99.90;;;;;;5041735;28;20499;-79
2021/11/28 05:19:57;;;;;;;5.13;4.38;;;2.60;99.90;;;;;;5052236;28;20045;-77
2021/11/28 05:22:23;;;;;;;4.80;3.45;;;2.60;99.90;;;;;;5054402;28;20029;-78
2021/11/28 05:24:50;;;;;;;7.95;4.53;;;2.60;99.90;;;;;;5056850;28;20029;-79
2021/11/28 05:27:17;;;;;;;6.00;3.13;;;2.60;99.90;;;;;;5049454;28;20022;-79
2021/11/28 05:29:43;;;;;;;6.13;2.75;;;2.70;99.90;;;;;;5045524;28;20447;-79
2021/11/28 05:32:09;;;;;;;6.43;2.95;;;2.70;99.90;;;;;;5053469;28;20077;-80
2021/11/28 05:34:35;;;;;;;2.65;2.08;;;2.70;99.90;;;;;;5051529;28;20048;-79
2021/11/28 05:37:00;;;;;;;3.00;2.30;;;2.70;99.90;;;;;;5051009;28;20030;-79
2021/11/28 05:39:26;;;;;;;13.57;5.93;;;2.70;99.90;;;;;;5049739;28;20085;-79
2021/11/28 05:41:52;;;;;;;5.70;4.15;;;2.80;99.90;;;;;;5052104;28;20029;-78
2021/11/28 05:44:17;;;;;;;5.47;4.32;;;2.80;99.90;;;;;;5048332;28;20025;-79
2021/11/28 05:46:43;;;;;;;4.57;3.97;;;2.80;99.90;;;;;;5046418;28;20037;-79
2021/11/28 05:49:08;;;;;;;6.47;5.28;;;2.90;99.90;;;;;;5050611;28;20167;-77
2021/11/28 05:51:34;;;;;;;6.40;5.53;;;2.90;99.90;;;;;;5044783;28;20067;-79
2021/11/28 05:54:00;;;;;;;8.35;6.32;;;2.80;99.90;;;;;;5039228;28;20052;-78
2021/11/28 05:56:28;;;;;;;8.13;5.18;;;2.70;99.90;;;;;;5042033;28;20024;-79
2021/11/28 05:58:54;;;;;;;8.43;5.55;;;2.70;99.90;;;;;;5047890;28;20055;-79
2021/11/28 06:01:20;;;;;;;8.15;4.75;;;2.60;99.90;;;;;;5041117;28;20033;-78
2021/11/28 06:03:45;;;;;;;11.75;5.03;;;2.60;99.90;;;;;;5038665;28;20031;-79
2021/11/28 06:06:11;;;;;;;7.25;5.65;;;2.60;99.90;;;;;;5038431;28;20516;-78
2021/11/28 06:08:37;;;;;;;6.25;5.00;;;2.60;99.90;;;;;;5040589;28;20033;-80
2021/11/28 06:11:03;;;;;;;9.25;6.50;;;2.60;99.90;;;;;;5040921;28;20029;-78
2021/11/28 06:13:28;;;;;;;6.72;5.28;;;2.60;99.90;;;;;;5040128;28;20053;-78
2021/11/28 06:15:54;;;;;;;9.82;4.80;;;2.60;99.90;;;;;;5038442;28;20044;-78
2021/11/28 06:18:19;;;;;;;6.57;5.40;;;2.80;99.90;;;;;;5046194;28;20108;-79
2021/11/28 06:20:47;;;;;;;6.47;5.15;;;2.80;99.90;;;;;;5040719;28;20029;-79
2021/11/28 06:23:13;;;;;;;6.65;5.30;;;2.90;99.90;;;;;;5042035;28;20089;-79
2021/11/28 06:25:38;;;;;;;6.75;5.05;;;2.90;99.90;;;;;;5042257;28;20029;-79
2021/11/28 06:28:04;;;;;;;7.32;4.97;;;2.90;99.90;;;;;;5045061;28;20025;-81
2021/11/28 06:30:32;;;;;;;6.45;4.13;;;2.80;99.90;;;;;;5040136;28;20026;-79
2021/11/28 06:32:58;;;;;;;8.25;4.93;;;2.90;99.90;;;;;;5039329;28;20025;-79
2021/11/28 06:35:24;;;;;;;8.52;5.13;;;3.00;99.90;;;;;;5042588;28;20053;-79
2021/11/28 06:37:50;;;;;;;12.68;6.50;;;3.00;99.90;;;;;;5053992;28;20044;-79
2021/11/28 06:40:15;;;;;;;5.82;4.60;;;2.90;99.90;;;;;;5056436;28;20036;-77
2021/11/28 06:42:43;;;;;;;6.65;4.80;;;2.80;99.90;;;;;;5054033;28;20081;-79
2021/11/28 06:45:09;;;;;;;8.40;4.90;;;2.70;99.90;;;;;;5044353;28;20077;-79
2021/11/28 06:47:35;;;;;;;7.00;5.35;;;2.80;99.90;;;;;;5041341;28;20029;-80
2021/11/28 06:50:00;;;;;;;10.25;5.15;;;2.80;99.90;;;;;;5044453;28;20029;-78
2021/11/28 06:52:26;;;;;;;6.80;5.18;;;2.80;99.90;;;;;;5043840;28;20056;-78
2021/11/28 06:54:52;;;;;;;6.55;4.93;;;2.80;99.90;;;;;;5044920;28;20028;-79
2021/11/28 06:57:17;;;;;;;5.78;5.18;;;2.80;99.90;;;;;;5043817;28;20025;-80
2021/11/28 06:59:43;;;;;;;6.85;5.10;;;2.80;99.90;;;;;;5041744;28;20359;-80
2021/11/28 07:02:09;;;;;;;6.43;5.13;;;2.90;99.90;;;;;;5040928;28;20401;-78
2021/11/28 07:04:34;;;;;;;7.72;4.07;;;2.90;99.90;;;;;;5040291;28;20099;-79
2021/11/28 07:07:00;;;;;;;5.60;4.40;;;2.90;99.90;;;;;;5040178;28;20030;-79
2021/11/28 07:09:27;;;;;;;5.97;4.78;;;2.80;99.90;;;;;;5039887;28;20075;-79
2021/11/28 07:11:53;;;;;;;6.95;4.72;;;2.70;99.90;;;;;;5038301;28;20025;-80
2021/11/28 07:14:19;;;;;;;8.05;4.05;;;2.70;99.90;;;;;;5041762;28;20042;-78
2021/11/28 07:16:44;;;;;;;7.47;4.00;;;2.70;99.90;;;;;;5039991;28;20098;-79
2021/11/28 07:19:10;;;;;;;4.38;3.55;;;2.60;99.90;;;;;;5042808;28;20117;-80
2021/11/28 07:21:36;;;;;;;5.03;3.63;;;2.60;99.90;;;;;;5042761;28;20386;-79
2021/11/28 07:24:01;;;;;;;6.68;4.75;;;2.70;99.90;;;;;;5038242;28;20022;-79
2021/11/28 07:26:27;;;;;;;10.15;5.28;;;2.60;99.90;;;;;;5042793;28;20385;-80
2021/11/28 07:28:54;;;;;;;6.25;4.32;;;2.60;99.90;;;;;;5042356;28;20397;-80
2021/11/28 07:31:20;;;;;;;6.55;5.78;;;2.60;99.90;;;;;;5042993;28;20075;-78
2021/11/28 07:33:46;;;;;;;8.65;4.93;;;2.70;99.90;;;;;;5045578;28;20018;-79
2021/11/28 07:36:12;;;;;;;8.10;5.35;;;2.70;99.90;;;;;;5044112;28;20030;-80
2021/11/28 07:38:38;;;;;;;7.20;4.30;;;2.70;99.90;;;;;;5047016;28;20085;-79
2021/11/28 07:41:04;;;;;;;5.15;4.07;;;2.80;99.90;;;;;;5044485;28;20080;-78
2021/11/28 07:43:30;;;;;;;4.68;3.67;;;2.90;99.90;;;;;;5052688;28;20014;-79
2021/11/28 07:45:55;;;;;;;6.43;3.78;;;3.00;99.90;;;;;;5048580;28;20033;-78
2021/11/28 07:48:22;;;;;;;6.90;4.13;;;3.10;99.90;;;;;;5049431;28;20101;-78
2021/11/28 07:50:48;;;;;;;9.05;5.72;;;3.30;99.90;;;;;;5048122;28;20089;-78
2021/11/28 07:53:14;;;;;;;5.50;3.70;;;3.30;99.90;;;;;;5050042;28;20022;-78
2021/11/28 07:55:40;;;;;;;7.30;4.90;;;3.10;99.90;;;;;;5050310;28;20028;-77
2021/11/28 07:58:06;;;;;;;5.78;4.82;;;3.10;99.90;;;;;;5054507;28;20033;-78
2021/11/28 08:00:31;;;;;;;6.68;4.68;;;3.20;99.90;;;;;;5055410;28;20029;-77
2021/11/28 08:02:58;;;;;;;6.78;4.38;;;3.30;99.90;;;;;;5056626;28;20022;-77
2021/11/28 08:05:24;;;;;;;5.32;4.05;;;3.40;99.90;;;;;;5057289;28;20009;-78
2021/11/28 08:07:50;;;;;;;7.60;4.50;;;3.50;99.90;;;;;;5056609;28;20021;-79
2021/11/28 08:10:16;;;;;;;9.68;5.15;;;3.40;99.90;;;;;;5057345;28;20052;-78
2021/11/28 08:12:42;;;;;;;6.80;4.72;;;3.30;99.90;;;;;;5055442;28;20079;-77
2021/11/28 08:15:12;;;;;;;6.75;4.40;;;3.10;99.90;;;;;;5053659;28;20021;-78
2021/11/28 08:17:39;;;;;;;6.13;4.63;;;3.10;99.90;;;;;;5053715;28;20025;-78
2021/11/28 08:20:08;;;;;;;6.00;4.75;;;3.10;99.90;;;;;;5053823;28;20121;-78
2021/11/28 08:22:34;;;;;;;6.35;4.95;;;3.50;99.90;;;;;;5053297;28;20029;-77
2021/11/28 08:25:00;;;;;;;8.60;4.78;;;3.60;99.90;;;;;;5053105;28;20064;-80
2021/11/28 08:27:26;;;;;;;7.95;5.15;;;3.60;99.90;;;;;;5053273;28;20026;-79
2021/11/28 08:29:53;;;;;;;6.25;5.00;;;3.50;99.90;;;;;;5053292;28;20049;-79
2021/11/28 08:32:19;;;;;;;8.07;4.85;;;3.30;99.90;;;;;;5054677;28;20021;-78
2021/11/28 08:34:44;;;;;;;7.85;5.10;;;3.40;99.90;;;;;;5052616;28;20056;-78
2021/11/28 08:37:10;;;;;;;6.40;5.00;;;3.40;99.90;;;;;;5054215;28;20033;-78
2021/11/28 08:39:36;;;;;;;7.90;4.80;;;3.60;99.90;;;;;;5052052;28;20104;-78
2021/11/28 08:42:07;;;;;;;8.30;4.72;;;3.60;99.90;;;;;;5053291;28;20033;-79
2021/11/28 08:44:33;;;;;;;6.22;5.53;;;3.40;99.90;;;;;;5054065;28;20021;-78
2021/11/28 08:46:59;;;;;;;7.03;6.22;;;3.60;99.90;;;;;;5054209;28;20314;-79
2021/11/28 08:49:24;;;;;;;7.55;5.97;;;3.70;99.90;;;;;;5054053;28;20037;-77
2021/11/28 08:51:50;;;;;;;10.60;7.53;;;3.70;99.90;;;;;;5051238;28;20040;-78
2021/11/28 08:54:16;;;;;;;6.57;5.93;;;3.60;99.90;;;;;;5053088;28;20029;-77
2021/11/28 08:56:43;;;;;;;6.70;5.85;;;3.70;99.90;;;;;;5053043;28;20024;-79
2021/11/28 08:59:09;;;;;;;6.93;5.25;;;3.70;99.90;;;;;;5056306;28;20006;-79
2021/11/28 09:01:36;;;;;;;7.47;5.32;;;3.60;99.90;;;;;;5050238;28;20052;-80
2021/11/28 09:04:02;;;;;;;9.88;5.65;;;3.50;99.90;;;;;;5052231;28;20029;-79
2021/11/28 09:06:28;;;;;;;10.00;7.78;;;3.60;99.90;;;;;;5052193;28;20033;-78
2021/11/28 09:08:54;;;;;;;8.57;5.75;;;3.60;99.90;;;;;;5049693;28;20052;-79
2021/11/28 09:11:19;;;;;;;6.65;5.95;;;3.70;99.90;;;;;;5044765;28;20048;-79
2021/11/28 09:13:45;;;;;;;10.43;5.38;;;3.70;99.90;;;;;;5044490;28;20033;-79
2021/11/28 09:16:11;;;;;;;7.47;5.78;;;3.80;99.90;;;;;;5044561;28;20040;-80
2021/11/28 09:18:43;;;;;;;8.55;6.00;;;3.80;99.90;;;;;;5044921;28;20026;-79
2021/11/28 09:21:08;;;;;;;6.53;5.10;;;3.70;99.90;;;;;;5042521;28;20059;-78
2021/11/28 09:26:19;;;;;;;7.25;5.97;;;3.80;99.90;;;;;;5043985;28;20083;-79
2021/11/28 09:28:44;;;;;;;9.20;5.90;;;4.20;99.90;;;;;;5042476;28;20057;-79
2021/11/28 09:31:11;;;;;;;9.73;6.22;;;4.20;99.90;;;;;;5043110;28;20030;-79
2021/11/28 09:33:41;;;;;;;6.50;5.45;;;4.10;99.90;;;;;;5043212;28;20104;-79
2021/11/28 09:36:08;;;;;;;11.93;6.13;;;4.30;99.90;;;;;;5044271;28;20026;-80
2021/11/28 09:38:33;;;;;;;8.27;5.80;;;4.30;99.90;;;;;;5052684;28;20013;-80
2021/11/28 09:41:06;;;;;;;6.47;5.88;;;4.30;99.90;;;;;;5047295;28;20513;-79
2021/11/28 09:43:34;;;;;;;5.72;5.18;;;4.40;99.90;;;;;;5045169;28;20025;-79
2021/11/28 09:46:05;;;;;;;6.47;5.80;;;4.40;99.90;;;;;;5044131;28;20381;-79
2021/11/28 09:48:34;;;;;;;10.10;6.25;;;4.50;99.90;;;;;;5042684;28;20032;-79
2021/11/28 09:51:04;;;;;;;5.88;5.07;;;4.40;99.90;;;;;;5050572;28;20044;-79
2021/11/28 09:53:32;;;;;;;7.00;4.95;;;4.10;99.90;;;;;;5057717;28;20014;-79
2021/11/28 09:55:59;;;;;;;6.30;5.15;;;4.20;99.90;;;;;;5057830;28;20018;-79
2021/11/28 09:58:25;;;;;;;8.52;6.13;;;4.20;99.90;;;;;;5057569;28;20037;-78
2021/11/28 10:00:51;;;;;;;9.10;6.85;;;4.20;99.90;;;;;;5053549;28;20029;-79
2021/11/28 10:03:17;;;;;;;8.65;5.25;;;4.40;99.90;;;;;;5050236;28;20029;-81
2021/11/28 10:05:43;;;;;;;7.18;5.90;;;4.50;99.90;;;;;;5051294;28;20053;-79
2021/11/28 10:08:09;;;;;;;8.48;5.80;;;4.70;99.90;;;;;;5050950;28;20030;-80
2021/11/28 10:10:35;;;;;;;7.97;6.10;;;4.80;99.90;;;;;;5049257;28;20037;-79
2021/11/28 10:13:02;;;;;;;9.38;5.53;;;4.90;99.90;;;;;;5048398;28;20033;-82
2021/11/28 10:15:29;;;;;;;6.38;4.88;;;4.80;99.90;;;;;;5046305;28;20032;-79
2021/11/28 10:17:57;;;;;;;8.75;4.70;;;4.90;99.90;;;;;;5048312;28;20400;-79
2021/11/28 10:20:26;;;;;;;17.05;5.07;;;4.90;99.90;;;;;;5076551;22;20488;-73
2021/11/28 10:22:53;;;;;;;8.38;5.38;;;4.80;99.90;;;;;;5022928;28;20034;-76
2021/11/28 10:25:26;;;;;;;6.20;4.40;;;4.90;99.90;;;;;;5021495;28;20032;-73
2021/11/28 10:28:04;;;;;;;7.47;5.05;;;4.90;99.90;;;;;;5019392;28;20374;-74
2021/11/28 10:30:29;;;;;;;7.45;5.30;;;4.80;99.90;;;;;;5017931;28;20053;-72
2021/11/28 10:33:02;;;;;;;6.63;4.53;;;4.70;99.90;;;;;;5016760;28;20367;-74
2021/11/28 10:35:28;;;;;;;6.55;4.20;;;4.70;99.90;;;;;;5014796;28;20038;-72
2021/11/28 10:37:54;;;;;;;5.25;4.75;;;4.70;99.90;;;;;;5016691;28;20060;-72
2021/11/28 10:40:29;;;;;;;5.50;4.95;;;4.80;99.90;;;;;;5014532;28;20048;-73
2021/11/28 10:43:16;;;;;;;10.15;5.40;;;4.80;99.90;;;;;;5015630;28;20026;-73
2021/11/28 10:45:48;;;;;;;9.60;5.53;;;4.80;99.90;;;;;;5020602;28;20441;-73
2021/11/28 10:48:21;;;;;;;8.40;5.35;;;4.60;99.90;;;;;;5018685;28;20037;-73
2021/11/28 10:50:47;;;;;;;6.78;5.05;;;4.60;99.90;;;;;;5022339;28;20022;-74
2021/11/28 10:53:21;;;;;;;4.22;3.13;;;4.60;99.90;;;;;;5020296;28;20018;-74
2021/11/28 10:55:50;;;;;;;4.80;3.22;;;4.40;99.90;;;;;;5016488;28;20022;-74
2021/11/28 10:58:20;;;;;;;3.67;3.38;;;4.40;99.90;;;;;;5014092;28;20026;-74
2021/11/28 11:00:46;;;;;;;6.07;3.95;;;4.50;99.90;;;;;;5013922;28;20018;-75
2021/11/28 11:03:14;;;;;;;11.20;6.38;;;4.50;99.90;;;;;;5015273;28;20446;-73
2021/11/28 11:05:39;;;;;;;11.85;6.63;;;4.60;99.90;;;;;;5015173;28;20018;-74
2021/11/28 11:08:05;;;;;;;7.93;6.40;;;4.70;99.90;;;;;;5031147;28;20428;-74
2021/11/28 11:10:34;;;;;;;6.78;5.15;;;4.90;99.90;;;;;;5030736;28;20049;-74
2021/11/28 11:13:03;;;;;;;8.07;3.25;;;4.80;99.90;;;;;;5018831;28;20025;-74
2021/11/28 11:15:43;;;;;;;3.42;2.63;;;4.70;99.90;;;;;;5023618;28;20026;-74
2021/11/28 11:18:10;;;;;;;6.93;2.90;;;4.70;99.90;;;;;;5032617;28;20093;-73
2021/11/28 11:20:39;;;;;;;4.28;2.80;;;4.60;99.90;;;;;;5029041;28;20026;-73
2021/11/28 11:23:30;;;;;;;5.28;2.67;;;4.50;99.90;;;;;;5025129;28;20088;-73
2021/11/28 11:26:10;;;;;;;;;;;4.50;99.90;;;;;;5023853;28;20030;-75
2021/11/28 11:28:36;;;;;;;4.25;3.35;;;4.50;99.90;;;;;;5023315;28;19971;-74
2021/11/28 11:31:02;;;;;;;3.90;2.80;;;4.50;99.90;;;;;;5019490;28;20478;-75
2021/11/28 11:33:35;;;;;;;4.38;3.33;;;4.50;99.90;;;;;;5026885;28;20510;-74
2021/11/28 11:36:00;;;;;;;5.00;3.03;;;4.60;99.90;;;;;;5030893;28;20026;-74
2021/11/28 11:38:27;;;;;;;9.55;4.22;;;4.70;99.90;;;;;;5023779;28;20083;-74
2021/11/28 11:40:53;;;;;;;3.63;3.10;;;4.80;99.90;;;;;;5026191;28;20025;-74
2021/11/28 11:43:20;;;;;;;4.68;3.20;;;4.80;99.90;;;;;;5031778;28;20090;-73
2021/11/28 11:45:48;;;;;;;5.22;3.60;;;5.10;99.90;;;;;;5028487;28;20023;-75
2021/11/28 11:48:14;;;;;;;5.57;4.15;;;5.30;99.90;;;;;;5023000;28;20029;-73
2021/11/28 11:50:40;;;;;;;5.78;4.35;;;5.40;99.90;;;;;;5023172;28;20022;-74
2021/11/28 11:53:06;;;;;;;5.35;4.07;;;5.50;99.90;;;;;;5030527;28;20033;-75
2021/11/28 11:55:42;;;;;;;8.18;3.90;;;5.60;99.90;;;;;;5024243;28;20026;-75
2021/11/28 11:58:33;;;;;;;5.53;3.40;;;5.60;99.90;;;;;;5017099;28;20030;-75
2021/11/28 12:01:03;;;;;;;3.77;2.83;;;5.50;99.90;;;;;;5017032;28;20248;-76
2021/11/28 12:03:42;;;;;;;10.43;3.58;;;5.60;99.90;;;;;;5017325;28;20049;-74
2021/11/28 12:06:07;;;;;;;5.15;3.67;;;5.60;99.90;;;;;;5017757;28;20026;-75
2021/11/28 12:08:33;;;;;;;4.82;3.67;;;5.60;99.90;;;;;;5014061;28;20045;-75
2021/11/28 12:11:05;;;;;;;8.82;7.18;;;5.50;99.90;;;;;;5012449;28;20026;-75
2021/11/28 12:13:31;;;;;;;8.13;6.38;;;5.60;99.90;;;;;;5013039;28;20113;-75
2021/11/28 12:16:03;;;;;;;6.30;5.32;;;5.70;99.90;;;;;;5022661;28;20065;-75
2021/11/28 12:18:34;;;;;;;5.82;3.72;;;5.60;99.90;;;;;;5024465;28;20084;-75
2021/11/28 12:21:09;;;;;;;7.00;4.20;;;5.50;99.90;;;;;;5015494;28;20030;-75
2021/11/28 12:23:45;;;;;;;4.03;2.58;;;5.50;99.90;;;;;;5030962;28;20018;-74
2021/11/28 12:26:45;;;;;;;2.00;1.80;;;5.50;99.90;;;;;;5015937;28;20022;-74
2021/11/28 12:29:10;;;;;;;4.28;2.05;;;5.40;99.90;;;;;;4989160;28;20057;-73
2021/11/28 12:31:45;;;;;;;3.97;2.05;;;5.20;99.90;;;;;;5016990;28;20026;-72
2021/11/28 12:34:15;;;;;;;4.93;2.35;;;5.20;99.90;;;;;;5016510;28;20101;-74
2021/11/28 12:36:52;;;;;;;3.22;1.95;;;5.20;99.90;;;;;;5015461;28;20117;-74
2021/11/28 12:39:21;;;;;;;2.75;2.30;;;5.10;99.90;;;;;;5015949;28;20028;-74
2021/11/28 12:41:52;;;;;;;5.05;3.17;;;4.90;99.90;;;;;;5017815;28;20037;-74
2021/11/28 12:44:24;;;;;;;4.30;3.90;;;5.00;99.90;;;;;;5016351;28;20113;-74
2021/11/28 12:46:57;;;;;;;5.80;4.53;;;5.20;99.90;;;;;;5020973;28;20026;-75
2021/11/28 12:49:36;;;;;;;5.65;4.80;;;5.30;99.90;;;;;;5019180;28;20152;-75
2021/11/28 12:52:17;;;;;;;6.85;5.20;;;5.30;99.90;;;;;;5020653;28;20068;-74
2021/11/28 12:55:04;;;;;;;6.57;5.00;;;5.40;99.90;;;;;;5020767;28;20030;-75
2021/11/28 12:57:30;;;;;;;5.20;4.70;;;5.40;99.90;;;;;;5019712;28;20026;-74
2021/11/28 13:00:17;;;;;;;6.22;5.15;;;5.50;99.90;;;;;;5018259;28;20719;-74
2021/11/28 13:02:49;;;;;;;5.57;4.43;;;5.40;99.90;;;;;;5018940;28;20623;-74
2021/11/28 13:08:15;;;;;;;4.97;3.97;;;5.40;99.90;;;;;;5018846;28;20033;-74
2021/11/28 13:10:41;;;;;;;3.50;2.95;;;5.30;99.90;;;;;;5018006;28;20030;-74